createdAt,value
2022-08-30T00:03:47.346Z,88.6
2022-08-30T00:09:24.407Z,88.6
2022-08-30T00:14:59.294Z,88.7
2022-08-30T00:20:34.173Z,88.5
2022-08-30T00:26:09.332Z,88.2
2022-08-30T00:31:45.171Z,88
2022-08-30T00:37:19.885Z,88
2022-08-30T00:43:19.655Z,87.9
2022-08-30T00:48:52.743Z,88
2022-08-30T00:54:27.588Z,87.9
2022-08-30T01:00:11.164Z,87.8
2022-08-30T01:05:46.135Z,87.7
2022-08-30T01:11:20.966Z,87.8
2022-08-30T01:16:56.907Z,87.7
2022-08-30T01:22:31.949Z,87.5
2022-08-30T01:28:09.726Z,87.7
2022-08-30T01:33:45.982Z,87.7
2022-08-30T01:39:20.626Z,87.9
2022-08-30T01:44:55.491Z,87.8
2022-08-30T01:50:30.563Z,87.6
2022-08-30T01:56:05.188Z,87.6
2022-08-30T02:01:40.402Z,87.6
2022-08-30T02:07:17.345Z,87.6
2022-08-30T02:12:52.194Z,87.7
2022-08-30T02:18:48.090Z,87.7
2022-08-30T02:24:22.854Z,87.5
2022-08-30T02:29:58.931Z,87.5
2022-08-30T02:35:33.677Z,87.5
2022-08-30T02:41:08.394Z,87.5
2022-08-30T02:46:43.242Z,87.5
2022-08-30T02:52:17.962Z,87.5
2022-08-30T02:58:02.527Z,88
2022-08-30T03:03:37.259Z,87.8
2022-08-30T03:09:12.426Z,87.8
2022-08-30T03:14:47.371Z,87.7
2022-08-30T03:20:22.817Z,87.8
2022-08-30T03:25:57.612Z,87.9
2022-08-30T03:31:52.710Z,87.9
2022-08-30T03:37:29.143Z,87.9
2022-08-30T03:43:05.764Z,88
2022-08-30T03:48:41.442Z,88
2022-08-30T03:54:16.232Z,88.1
2022-08-30T03:59:53.611Z,88.1
2022-08-30T04:05:28.501Z,88.2
2022-08-30T04:11:06.463Z,88.2
2022-08-30T04:16:47.707Z,88.2
2022-08-30T04:22:54.830Z,88.1
2022-08-30T04:28:29.652Z,88.1
2022-08-30T04:34:04.708Z,88.1
2022-08-30T04:39:39.645Z,88.2
2022-08-30T04:45:14.615Z,88.1
2022-08-30T04:50:49.678Z,88.2
2022-08-30T04:56:24.311Z,88.2
2022-08-30T05:02:01.096Z,88.2
2022-08-30T05:07:36.549Z,88.3
2022-08-30T05:13:13.184Z,88.3
2022-08-30T05:18:48.444Z,88.2
2022-08-30T05:24:23.271Z,88.2
2022-08-30T05:29:59.486Z,88.1
2022-08-30T05:35:34.349Z,88.1
2022-08-30T05:41:11.469Z,88.2
2022-08-30T05:46:46.531Z,88.3
2022-08-30T05:52:22.035Z,88.5
2022-08-30T05:57:57.447Z,88.7
2022-08-30T06:03:32.276Z,88.5
2022-08-30T06:09:07.104Z,88.7
2022-08-30T06:14:43.780Z,88.6
2022-08-30T06:20:18.951Z,88.6
2022-08-30T06:25:53.663Z,88.5
2022-08-30T06:31:28.858Z,88.2
2022-08-30T06:37:04.691Z,88.2
2022-08-30T06:42:39.735Z,88.7
2022-08-30T06:48:14.577Z,88.9
2022-08-30T06:53:49.401Z,89.5
2022-08-30T06:59:24.217Z,89
2022-08-30T07:04:59.062Z,88.7
2022-08-30T07:10:34.287Z,87.7
2022-08-30T07:16:10.134Z,87
2022-08-30T07:21:46.077Z,87.5
2022-08-30T07:27:20.834Z,87.3
2022-08-30T07:32:56.131Z,86.6
2022-08-30T07:38:31.064Z,86.1
2022-08-30T07:44:06.350Z,86.4
2022-08-30T07:49:41.209Z,85.2
2022-08-30T07:55:16.033Z,85.2
2022-08-30T08:00:51.648Z,83.8
2022-08-30T08:06:26.752Z,83
2022-08-30T08:12:10.236Z,83.6
2022-08-30T08:17:44.843Z,82.1
2022-08-30T08:23:19.855Z,83.3
2022-08-30T08:28:54.755Z,81.4
2022-08-30T08:34:29.634Z,81.5
2022-08-30T08:40:04.673Z,82.6
2022-08-30T08:45:40.489Z,82.2
2022-08-30T08:51:15.748Z,80.4
2022-08-30T08:56:50.610Z,79.6
2022-08-30T09:02:25.422Z,79.3
2022-08-30T09:08:00.551Z,79.3
2022-08-30T09:13:35.409Z,78.6
2022-08-30T09:19:11.501Z,78.1
2022-08-30T09:24:46.434Z,78
2022-08-30T09:30:21.576Z,78.2
2022-08-30T09:35:56.548Z,77.9
2022-08-30T09:41:33.262Z,77.6
2022-08-30T09:47:09.228Z,75.2
2022-08-30T09:52:50.914Z,73.9
2022-08-30T09:58:30.665Z,76.2
2022-08-30T10:04:05.710Z,76.2
2022-08-30T10:09:40.630Z,73.1
2022-08-30T10:15:15.591Z,73.5
2022-08-30T10:20:50.951Z,73.6
2022-08-30T10:26:30.436Z,73.3
2022-08-30T10:32:06.804Z,75.8
2022-08-30T10:37:43.294Z,77.1
2022-08-30T10:43:19.303Z,78.1
2022-08-30T10:48:54.034Z,78.3
2022-08-30T10:54:29.312Z,78.6
2022-08-30T11:00:06.627Z,78.5
2022-08-30T11:05:42.410Z,78.6
2022-08-30T11:11:17.560Z,78.8
2022-08-30T11:16:52.930Z,78.8
2022-08-30T11:22:27.786Z,78.7
2022-08-30T11:28:02.642Z,78.1
2022-08-30T11:33:37.932Z,78.2
2022-08-30T11:39:13.209Z,78.6
2022-08-30T11:44:49.570Z,78.4
2022-08-30T11:50:26.763Z,78.3
2022-08-30T11:56:02.436Z,78.3
2022-08-30T12:01:55.402Z,77.8
2022-08-30T12:07:36.199Z,77.9
2022-08-30T12:13:17.501Z,77.8
2022-08-30T12:18:56.355Z,77.9
2022-08-30T12:24:33.355Z,77.5
2022-08-30T12:30:14.045Z,75.9
2022-08-30T12:35:52.955Z,75.7
2022-08-30T12:41:30.208Z,75.1
2022-08-30T12:47:06.614Z,74.7
2022-08-30T12:52:44.524Z,74.3
2022-08-30T12:58:21.015Z,72.8
2022-08-30T13:04:00.076Z,71.7
2022-08-30T13:09:37.225Z,71.5
2022-08-30T13:15:13.052Z,70.2
2022-08-30T13:20:48.041Z,69.3
2022-08-30T13:26:23.781Z,68.7
2022-08-30T13:32:02.119Z,67.7
2022-08-30T13:37:51.614Z,67
2022-08-30T13:43:28.310Z,65.6
2022-08-30T13:49:47.116Z,63.4
2022-08-30T13:55:23.702Z,63.2
2022-08-30T14:00:58.971Z,62.1
2022-08-30T14:06:35.451Z,61.2
2022-08-30T14:13:08.732Z,60.5
2022-08-30T14:18:49.256Z,59.3
2022-08-30T14:24:26.802Z,59.4
2022-08-30T14:30:02.032Z,59.6
2022-08-30T14:35:36.938Z,59.2
2022-08-30T14:41:14.011Z,58.4
2022-08-30T14:46:51.328Z,57.2
2022-08-30T14:52:40.503Z,56.3
2022-08-30T14:58:20.323Z,55.9
2022-08-30T15:03:58.292Z,55.7
2022-08-30T15:09:35.752Z,55.9
2022-08-30T15:15:13.854Z,54.8
2022-08-30T15:20:49.510Z,55.9
2022-08-30T15:26:24.378Z,56.7
2022-08-30T15:32:00.507Z,56.8
2022-08-30T15:37:37.344Z,57.2
2022-08-30T15:43:14.443Z,57.9
2022-08-30T15:49:07.123Z,58.9
2022-08-30T15:54:48.371Z,60.1
2022-08-30T16:00:35.227Z,60.6
2022-08-30T16:06:34.652Z,60.3
2022-08-30T16:12:25.418Z,60.1
2022-08-30T16:18:15.647Z,60.1
2022-08-30T16:24:04.004Z,60.3
2022-08-30T16:29:54.829Z,60.6
2022-08-30T16:35:40.133Z,60.8
2022-08-30T16:41:28.195Z,61
2022-08-30T16:47:14.877Z,61.3
2022-08-30T16:52:53.370Z,61.6
2022-08-30T16:58:28.133Z,61.8
2022-08-30T17:04:05.531Z,62.1
2022-08-30T17:09:40.993Z,62.3
2022-08-30T17:15:15.809Z,62.6
2022-08-30T17:20:50.926Z,62.9
2022-08-30T17:26:28.319Z,63.1
2022-08-30T17:32:02.879Z,63.4
2022-08-30T17:37:41.244Z,63.8
2022-08-30T17:43:17.012Z,64.1
2022-08-30T17:49:01.493Z,64.4
2022-08-30T17:54:36.451Z,64.7
2022-08-30T18:00:15.996Z,64.9
2022-08-30T18:05:56.565Z,65.2
2022-08-30T18:11:32.541Z,65.5
2022-08-30T18:17:07.490Z,65.7
2022-08-30T18:22:43.783Z,65.9
2022-08-30T18:28:19.187Z,66.1
2022-08-30T18:33:59.124Z,66.3
2022-08-30T18:39:35.198Z,66.5
2022-08-30T18:45:15.616Z,66.6
2022-08-30T18:50:53.106Z,66.7
2022-08-30T18:56:33.381Z,66.9
2022-08-30T19:02:10.067Z,67.2
2022-08-30T19:07:47.965Z,67.5
2022-08-30T19:13:24.295Z,67.7
2022-08-30T19:19:00.404Z,68
2022-08-30T19:24:35.839Z,68.3
2022-08-30T19:30:15.166Z,68.6
2022-08-30T19:36:05.114Z,69
2022-08-30T19:41:40.942Z,69.4
2022-08-30T19:47:16.063Z,69.8
2022-08-30T19:52:55.158Z,70.2
2022-08-30T19:58:29.999Z,70.6
2022-08-30T20:04:05.121Z,71.1
2022-08-30T20:09:40.955Z,71.5
2022-08-30T20:15:16.250Z,72
2022-08-30T20:20:51.841Z,72.3
2022-08-30T20:26:34.619Z,72.8
2022-08-30T20:32:10.646Z,73.1
2022-08-30T20:37:45.704Z,73.5
2022-08-30T20:43:21.454Z,73.8
2022-08-30T20:48:56.316Z,74.2
2022-08-30T20:54:31.236Z,74.8
2022-08-30T21:00:07.679Z,75
2022-08-30T21:05:44.376Z,75.3
2022-08-30T21:11:19.690Z,75.5
2022-08-30T21:16:55.651Z,75.9
2022-08-30T21:22:31.236Z,76
2022-08-30T21:28:06.044Z,76.3
2022-08-30T21:33:40.782Z,76.4
2022-08-30T21:39:15.852Z,76.6
2022-08-30T21:44:50.652Z,76.6
2022-08-30T21:50:25.573Z,76.8
2022-08-30T21:56:00.385Z,76.9
2022-08-30T22:01:38.179Z,76.9
2022-08-30T22:07:14.117Z,76.9
2022-08-30T22:12:50.136Z,77
2022-08-30T22:18:25.275Z,77.1
2022-08-30T22:24:02.061Z,77.1
2022-08-30T22:29:41.205Z,77.2
2022-08-30T22:35:16.082Z,77.3
2022-08-30T22:40:51.772Z,77.4
2022-08-30T22:46:34.961Z,77.4
2022-08-30T22:52:10.042Z,77.5
2022-08-30T22:57:45.290Z,77.6
2022-08-30T23:03:20.220Z,77.8
2022-08-30T23:08:55.057Z,77.9
2022-08-30T23:14:30.874Z,77.9
2022-08-30T23:20:05.640Z,78.1
2022-08-30T23:25:44.633Z,78.3
2022-08-30T23:31:26.899Z,78.5
2022-08-30T23:37:03.337Z,78.5
2022-08-30T23:42:38.293Z,78.6
2022-08-30T23:48:13.181Z,78.7
2022-08-30T23:53:49.203Z,78.9
2022-08-30T23:59:24.020Z,78.9
